METAR Data
IDs: Format: Raw Decoded Include TAF

Data at: 1350 UTC 25 Nov 2020

METAR for:EKRN (Ronne/Bornholm Arpt, HO, DN)
Text:EKRN 251320Z AUTO 21010KT 9999 BKN005/// 06/06 Q1017
Temperature: 6.0°C ( 43°F)
Dewpoint: 6.0°C ( 43°F) [RH = 100%]
Pressure (altimeter):30.03 inches Hg (1017.0 mb)
Winds:from the SSW (210 degrees) at 12 MPH (10 knots; 5.1 m/s)
Visibility:6 or more sm (10+ km)
Ceiling:500 feet AGL
Clouds: broken clouds at 500 feet AGL
Text:EKRN 251250Z AUTO 20008KT 9999 BKN006/// 07/06 Q1017
Temperature: 7.0°C ( 45°F)
Dewpoint: 6.0°C ( 43°F) [RH = 93%]
Pressure (altimeter):30.03 inches Hg (1017.0 mb)
Winds:from the SSW (200 degrees) at 9 MPH (8 knots; 4.1 m/s)
Visibility:6 or more sm (10+ km)
Ceiling:600 feet AGL
Clouds: broken clouds at 600 feet AGL
Text:EKRN 251220Z AUTO 21009KT 9999 BKN007/// 07/06 Q1017
Temperature: 7.0°C ( 45°F)
Dewpoint: 6.0°C ( 43°F) [RH = 93%]
Pressure (altimeter):30.03 inches Hg (1017.0 mb)
Winds:from the SSW (210 degrees) at 10 MPH (9 knots; 4.6 m/s)
Visibility:6 or more sm (10+ km)
Ceiling:700 feet AGL
Clouds: broken clouds at 700 feet AGL
Text:EKRN 251150Z AUTO 19009KT 9999 BKN008/// 07/06 Q1017
Temperature: 7.0°C ( 45°F)
Dewpoint: 6.0°C ( 43°F) [RH = 93%]
Pressure (altimeter):30.03 inches Hg (1017.0 mb)
Winds:from the S (190 degrees) at 10 MPH (9 knots; 4.6 m/s)
Visibility:6 or more sm (10+ km)
Ceiling:800 feet AGL
Clouds: broken clouds at 800 feet AGL
Text:EKRN 251120Z AUTO 19010KT 9999 BKN009/// 08/06 Q1017
Temperature: 8.0°C ( 46°F)
Dewpoint: 6.0°C ( 43°F) [RH = 87%]
Pressure (altimeter):30.03 inches Hg (1017.0 mb)
Winds:from the S (190 degrees) at 12 MPH (10 knots; 5.1 m/s)
Visibility:6 or more sm (10+ km)
Ceiling:900 feet AGL
Clouds: broken clouds at 900 feet AGL
Text:EKRN 251050Z AUTO 19011KT 9999 BKN009/// BKN025/// 08/06 Q1017
Temperature: 8.0°C ( 46°F)
Dewpoint: 6.0°C ( 43°F) [RH = 87%]
Pressure (altimeter):30.03 inches Hg (1017.0 mb)
Winds:from the S (190 degrees) at 13 MPH (11 knots; 5.7 m/s)
Visibility:6 or more sm (10+ km)
Ceiling:900 feet AGL
Clouds: broken clouds at 900 feet AGL, broken clouds at 2500 feet AGL
Text:EKRN 251020Z AUTO 20010KT 9999 BKN009/// 08/07 Q1018
Temperature: 8.0°C ( 46°F)
Dewpoint: 7.0°C ( 45°F) [RH = 93%]
Pressure (altimeter):30.06 inches Hg (1018.0 mb)
Winds:from the SSW (200 degrees) at 12 MPH (10 knots; 5.1 m/s)
Visibility:6 or more sm (10+ km)
Ceiling:900 feet AGL
Clouds: broken clouds at 900 feet AGL
Text:EKRN 250950Z AUTO 20009KT 9999 BKN012/// 09/06 Q1018
Temperature: 9.0°C ( 48°F)
Dewpoint: 6.0°C ( 43°F) [RH = 81%]
Pressure (altimeter):30.06 inches Hg (1018.0 mb)
Winds:from the SSW (200 degrees) at 10 MPH (9 knots; 4.6 m/s)
Visibility:6 or more sm (10+ km)
Ceiling:1200 feet AGL
Clouds: broken clouds at 1200 feet AGL
Text:EKRN 250920Z AUTO 21009KT 9999 BKN013/// 09/06 Q1018
Temperature: 9.0°C ( 48°F)
Dewpoint: 6.0°C ( 43°F) [RH = 81%]
Pressure (altimeter):30.06 inches Hg (1018.0 mb)
Winds:from the SSW (210 degrees) at 10 MPH (9 knots; 4.6 m/s)
Visibility:6 or more sm (10+ km)
Ceiling:1300 feet AGL
Clouds: broken clouds at 1300 feet AGL
Text:EKRN 250850Z AUTO 21010KT 9999 BKN012/// 08/06 Q1018
Temperature: 8.0°C ( 46°F)
Dewpoint: 6.0°C ( 43°F) [RH = 87%]
Pressure (altimeter):30.06 inches Hg (1018.0 mb)
Winds:from the SSW (210 degrees) at 12 MPH (10 knots; 5.1 m/s)
Visibility:6 or more sm (10+ km)
Ceiling:1200 feet AGL
Clouds: broken clouds at 1200 feet AGL
Text:EKRN 250820Z AUTO 22011KT 9999 BKN012/// 08/06 Q1018
Temperature: 8.0°C ( 46°F)
Dewpoint: 6.0°C ( 43°F) [RH = 87%]
Pressure (altimeter):30.06 inches Hg (1018.0 mb)
Winds:from the SW (220 degrees) at 13 MPH (11 knots; 5.7 m/s)
Visibility:6 or more sm (10+ km)
Ceiling:1200 feet AGL
Clouds: broken clouds at 1200 feet AGL
Text:EKRN 250750Z AUTO 22012KT 9999 SCT011/// BKN180/// 08/06 Q1018
Temperature: 8.0°C ( 46°F)
Dewpoint: 6.0°C ( 43°F) [RH = 87%]
Pressure (altimeter):30.06 inches Hg (1018.0 mb)
Winds:from the SW (220 degrees) at 14 MPH (12 knots; 6.2 m/s)
Visibility:6 or more sm (10+ km)
Ceiling:18000 feet AGL
Clouds: scattered clouds at 1100 feet AGL, broken clouds at 18000 feet AGL
Text:EKRN 250720Z AUTO 22013KT 9999 SCT009/// 08/07 Q1018
Temperature: 8.0°C ( 46°F)
Dewpoint: 7.0°C ( 45°F) [RH = 93%]
Pressure (altimeter):30.06 inches Hg (1018.0 mb)
Winds:from the SW (220 degrees) at 15 MPH (13 knots; 6.7 m/s)
Visibility:6 or more sm (10+ km)
Ceiling:at least 12,000 feet AGL
Clouds: scattered clouds at 900 feet AGL
Text:EKRN 250650Z AUTO 21012KT 9999 BKN007/// BKN210/// 08/07 Q1018
Temperature: 8.0°C ( 46°F)
Dewpoint: 7.0°C ( 45°F) [RH = 93%]
Pressure (altimeter):30.06 inches Hg (1018.0 mb)
Winds:from the SSW (210 degrees) at 14 MPH (12 knots; 6.2 m/s)
Visibility:6 or more sm (10+ km)
Ceiling:700 feet AGL
Clouds: broken clouds at 700 feet AGL, broken clouds at 21000 feet AGL
Text:EKRN 250620Z AUTO 20013KT 9999 BKN007/// 08/08 Q1018
Temperature: 8.0°C ( 46°F)
Dewpoint: 8.0°C ( 46°F) [RH = 100%]
Pressure (altimeter):30.06 inches Hg (1018.0 mb)
Winds:from the SSW (200 degrees) at 15 MPH (13 knots; 6.7 m/s)
Visibility:6 or more sm (10+ km)
Ceiling:700 feet AGL
Clouds: broken clouds at 700 feet AGL
Text:EKRN 250550Z AUTO 20013KT 9999 BKN007/// 08/08 Q1018
Temperature: 8.0°C ( 46°F)
Dewpoint: 8.0°C ( 46°F) [RH = 100%]
Pressure (altimeter):30.06 inches Hg (1018.0 mb)
Winds:from the SSW (200 degrees) at 15 MPH (13 knots; 6.7 m/s)
Visibility:6 or more sm (10+ km)
Ceiling:700 feet AGL
Clouds: broken clouds at 700 feet AGL
Text:EKRN 250520Z AUTO 20011KT 9999 SCT007/// SCT047/// 08/08 Q1018
Temperature: 8.0°C ( 46°F)
Dewpoint: 8.0°C ( 46°F) [RH = 100%]
Pressure (altimeter):30.06 inches Hg (1018.0 mb)
Winds:from the SSW (200 degrees) at 13 MPH (11 knots; 5.7 m/s)
Visibility:6 or more sm (10+ km)
Ceiling:at least 12,000 feet AGL
Clouds: scattered clouds at 700 feet AGL, scattered clouds at 4700 feet AGL
Text:EKRN 250450Z AUTO 22008KT 9999 BKN045/// 09/07 Q1018
Temperature: 9.0°C ( 48°F)
Dewpoint: 7.0°C ( 45°F) [RH = 87%]
Pressure (altimeter):30.06 inches Hg (1018.0 mb)
Winds:from the SW (220 degrees) at 9 MPH (8 knots; 4.1 m/s)
Visibility:6 or more sm (10+ km)
Ceiling:4500 feet AGL
Clouds: broken clouds at 4500 feet AGL
Text:EKRN 250420Z AUTO 24007KT 9999 FEW011/// BKN046/// 09/07 Q1018
Temperature: 9.0°C ( 48°F)
Dewpoint: 7.0°C ( 45°F) [RH = 87%]
Pressure (altimeter):30.06 inches Hg (1018.0 mb)
Winds:from the WSW (240 degrees) at 8 MPH (7 knots; 3.6 m/s)
Visibility:6 or more sm (10+ km)
Ceiling:4600 feet AGL
Clouds: few clouds at 1100 feet AGL, broken clouds at 4600 feet AGL
Text:EKRN 250350Z AUTO 23008KT 9999 BKN010/// OVC045/// 09/08 Q1018
Temperature: 9.0°C ( 48°F)
Dewpoint: 8.0°C ( 46°F) [RH = 93%]
Pressure (altimeter):30.06 inches Hg (1018.0 mb)
Winds:from the SW (230 degrees) at 9 MPH (8 knots; 4.1 m/s)
Visibility:6 or more sm (10+ km)
Ceiling:1000 feet AGL
Clouds: broken clouds at 1000 feet AGL, overcast cloud deck at 4500 feet AGL
Text:EKRN 250320Z AUTO 24010KT 9999 OVC010/// 09/08 Q1018
Temperature: 9.0°C ( 48°F)
Dewpoint: 8.0°C ( 46°F) [RH = 93%]
Pressure (altimeter):30.06 inches Hg (1018.0 mb)
Winds:from the WSW (240 degrees) at 12 MPH (10 knots; 5.1 m/s)
Visibility:6 or more sm (10+ km)
Ceiling:1000 feet AGL
Clouds: overcast cloud deck at 1000 feet AGL
Text:EKRN 250250Z AUTO 24009KT 9999 OVC010/// 09/08 Q1018
Temperature: 9.0°C ( 48°F)
Dewpoint: 8.0°C ( 46°F) [RH = 93%]
Pressure (altimeter):30.06 inches Hg (1018.0 mb)
Winds:from the WSW (240 degrees) at 10 MPH (9 knots; 4.6 m/s)
Visibility:6 or more sm (10+ km)
Ceiling:1000 feet AGL
Clouds: overcast cloud deck at 1000 feet AGL
Text:EKRN 250220Z AUTO 24010KT 9999 OVC010/// 09/08 Q1018
Temperature: 9.0°C ( 48°F)
Dewpoint: 8.0°C ( 46°F) [RH = 93%]
Pressure (altimeter):30.06 inches Hg (1018.0 mb)
Winds:from the WSW (240 degrees) at 12 MPH (10 knots; 5.1 m/s)
Visibility:6 or more sm (10+ km)
Ceiling:1000 feet AGL
Clouds: overcast cloud deck at 1000 feet AGL
Text:EKRN 250150Z AUTO 25011KT 9999 OVC011/// 09/08 Q1018
Temperature: 9.0°C ( 48°F)
Dewpoint: 8.0°C ( 46°F) [RH = 93%]
Pressure (altimeter):30.06 inches Hg (1018.0 mb)
Winds:from the WSW (250 degrees) at 13 MPH (11 knots; 5.7 m/s)
Visibility:6 or more sm (10+ km)
Ceiling:1100 feet AGL
Clouds: overcast cloud deck at 1100 feet AGL
Text:EKRN 250120Z AUTO 25011KT 9999 OVC011/// 09/08 Q1019
Temperature: 9.0°C ( 48°F)
Dewpoint: 8.0°C ( 46°F) [RH = 93%]
Pressure (altimeter):30.09 inches Hg (1019.0 mb)
Winds:from the WSW (250 degrees) at 13 MPH (11 knots; 5.7 m/s)
Visibility:6 or more sm (10+ km)
Ceiling:1100 feet AGL
Clouds: overcast cloud deck at 1100 feet AGL
Text:EKRN 250050Z AUTO 25012KT 9999 OVC010/// 09/08 Q1019
Temperature: 9.0°C ( 48°F)
Dewpoint: 8.0°C ( 46°F) [RH = 93%]
Pressure (altimeter):30.09 inches Hg (1019.0 mb)
Winds:from the WSW (250 degrees) at 14 MPH (12 knots; 6.2 m/s)
Visibility:6 or more sm (10+ km)
Ceiling:1000 feet AGL
Clouds: overcast cloud deck at 1000 feet AGL
Text:EKRN 250020Z AUTO 25012KT 9999 OVC011/// 09/08 Q1019
Temperature: 9.0°C ( 48°F)
Dewpoint: 8.0°C ( 46°F) [RH = 93%]
Pressure (altimeter):30.09 inches Hg (1019.0 mb)
Winds:from the WSW (250 degrees) at 14 MPH (12 knots; 6.2 m/s)
Visibility:6 or more sm (10+ km)
Ceiling:1100 feet AGL
Clouds: overcast cloud deck at 1100 feet AGL
Text:EKRN 242350Z AUTO 26015KT 9999 OVC011/// 09/08 Q1019
Temperature: 9.0°C ( 48°F)
Dewpoint: 8.0°C ( 46°F) [RH = 93%]
Pressure (altimeter):30.09 inches Hg (1019.0 mb)
Winds:from the W (260 degrees) at 17 MPH (15 knots; 7.7 m/s)
Visibility:6 or more sm (10+ km)
Ceiling:1100 feet AGL
Clouds: overcast cloud deck at 1100 feet AGL
Text:EKRN 242320Z AUTO 26015KT 9999 OVC011/// 09/08 Q1019
Temperature: 9.0°C ( 48°F)
Dewpoint: 8.0°C ( 46°F) [RH = 93%]
Pressure (altimeter):30.09 inches Hg (1019.0 mb)
Winds:from the W (260 degrees) at 17 MPH (15 knots; 7.7 m/s)
Visibility:6 or more sm (10+ km)
Ceiling:1100 feet AGL
Clouds: overcast cloud deck at 1100 feet AGL
Text:EKRN 242250Z AUTO 25015KT 9999 BKN011/// 09/08 Q1019
Temperature: 9.0°C ( 48°F)
Dewpoint: 8.0°C ( 46°F) [RH = 93%]
Pressure (altimeter):30.09 inches Hg (1019.0 mb)
Winds:from the WSW (250 degrees) at 17 MPH (15 knots; 7.7 m/s)
Visibility:6 or more sm (10+ km)
Ceiling:1100 feet AGL
Clouds: broken clouds at 1100 feet AGL
Text:EKRN 242220Z AUTO 25015KT 9999 SCT010/// BKN036/// 09/08 Q1018
Temperature: 9.0°C ( 48°F)
Dewpoint: 8.0°C ( 46°F) [RH = 93%]
Pressure (altimeter):30.06 inches Hg (1018.0 mb)
Winds:from the WSW (250 degrees) at 17 MPH (15 knots; 7.7 m/s)
Visibility:6 or more sm (10+ km)
Ceiling:3600 feet AGL
Clouds: scattered clouds at 1000 feet AGL, broken clouds at 3600 feet AGL
Text:EKRN 242150Z AUTO 25016KT 9999 FEW010/// OVC036/// 09/08 Q1018
Temperature: 9.0°C ( 48°F)
Dewpoint: 8.0°C ( 46°F) [RH = 93%]
Pressure (altimeter):30.06 inches Hg (1018.0 mb)
Winds:from the WSW (250 degrees) at 18 MPH (16 knots; 8.2 m/s)
Visibility:6 or more sm (10+ km)
Ceiling:3600 feet AGL
Clouds: few clouds at 1000 feet AGL, overcast cloud deck at 3600 feet AGL
Text:EKRN 242120Z AUTO 25018KT 9999 FEW011/// OVC036/// 09/08 Q1019
Temperature: 9.0°C ( 48°F)
Dewpoint: 8.0°C ( 46°F) [RH = 93%]
Pressure (altimeter):30.09 inches Hg (1019.0 mb)
Winds:from the WSW (250 degrees) at 21 MPH (18 knots; 9.3 m/s)
Visibility:6 or more sm (10+ km)
Ceiling:3600 feet AGL
Clouds: few clouds at 1100 feet AGL, overcast cloud deck at 3600 feet AGL
Text:EKRN 242050Z AUTO 25016KT 9999 BKN011/// OVC036/// 09/08 Q1019
Temperature: 9.0°C ( 48°F)
Dewpoint: 8.0°C ( 46°F) [RH = 93%]
Pressure (altimeter):30.09 inches Hg (1019.0 mb)
Winds:from the WSW (250 degrees) at 18 MPH (16 knots; 8.2 m/s)
Visibility:6 or more sm (10+ km)
Ceiling:1100 feet AGL
Clouds: broken clouds at 1100 feet AGL, overcast cloud deck at 3600 feet AGL
Text:EKRN 242020Z AUTO 25017KT 9999 OVC011/// 09/08 Q1019
Temperature: 9.0°C ( 48°F)
Dewpoint: 8.0°C ( 46°F) [RH = 93%]
Pressure (altimeter):30.09 inches Hg (1019.0 mb)
Winds:from the WSW (250 degrees) at 20 MPH (17 knots; 8.7 m/s)
Visibility:6 or more sm (10+ km)
Ceiling:1100 feet AGL
Clouds: overcast cloud deck at 1100 feet AGL
Text:EKRN 241950Z AUTO 25016KT 9999 OVC011/// 09/08 Q1019
Temperature: 9.0°C ( 48°F)
Dewpoint: 8.0°C ( 46°F) [RH = 93%]
Pressure (altimeter):30.09 inches Hg (1019.0 mb)
Winds:from the WSW (250 degrees) at 18 MPH (16 knots; 8.2 m/s)
Visibility:6 or more sm (10+ km)
Ceiling:1100 feet AGL
Clouds: overcast cloud deck at 1100 feet AGL
Text:EKRN 241920Z AUTO 24017KT 9999 OVC011/// 09/08 Q1019
Temperature: 9.0°C ( 48°F)
Dewpoint: 8.0°C ( 46°F) [RH = 93%]
Pressure (altimeter):30.09 inches Hg (1019.0 mb)
Winds:from the WSW (240 degrees) at 20 MPH (17 knots; 8.7 m/s)
Visibility:6 or more sm (10+ km)
Ceiling:1100 feet AGL
Clouds: overcast cloud deck at 1100 feet AGL
Text:EKRN 241850Z AUTO 24017KT 9999 OVC011/// 09/08 Q1019
Temperature: 9.0°C ( 48°F)
Dewpoint: 8.0°C ( 46°F) [RH = 93%]
Pressure (altimeter):30.09 inches Hg (1019.0 mb)
Winds:from the WSW (240 degrees) at 20 MPH (17 knots; 8.7 m/s)
Visibility:6 or more sm (10+ km)
Ceiling:1100 feet AGL
Clouds: overcast cloud deck at 1100 feet AGL
Text:EKRN 241820Z AUTO 25017KT 9999 OVC011/// 09/08 Q1019
Temperature: 9.0°C ( 48°F)
Dewpoint: 8.0°C ( 46°F) [RH = 93%]
Pressure (altimeter):30.09 inches Hg (1019.0 mb)
Winds:from the WSW (250 degrees) at 20 MPH (17 knots; 8.7 m/s)
Visibility:6 or more sm (10+ km)
Ceiling:1100 feet AGL
Clouds: overcast cloud deck at 1100 feet AGL
Text:EKRN 241750Z AUTO 24018KT 9999 OVC010/// 09/08 Q1019
Temperature: 9.0°C ( 48°F)
Dewpoint: 8.0°C ( 46°F) [RH = 93%]
Pressure (altimeter):30.09 inches Hg (1019.0 mb)
Winds:from the WSW (240 degrees) at 21 MPH (18 knots; 9.3 m/s)
Visibility:6 or more sm (10+ km)
Ceiling:1000 feet AGL
Clouds: overcast cloud deck at 1000 feet AGL
Text:EKRN 241720Z AUTO 24018KT 9999 OVC010/// 09/08 Q1019
Temperature: 9.0°C ( 48°F)
Dewpoint: 8.0°C ( 46°F) [RH = 93%]
Pressure (altimeter):30.09 inches Hg (1019.0 mb)
Winds:from the WSW (240 degrees) at 21 MPH (18 knots; 9.3 m/s)
Visibility:6 or more sm (10+ km)
Ceiling:1000 feet AGL
Clouds: overcast cloud deck at 1000 feet AGL
Text:EKRN 241650Z AUTO 24019KT 9999 OVC011/// 09/08 Q1019
Temperature: 9.0°C ( 48°F)
Dewpoint: 8.0°C ( 46°F) [RH = 93%]
Pressure (altimeter):30.09 inches Hg (1019.0 mb)
Winds:from the WSW (240 degrees) at 22 MPH (19 knots; 9.8 m/s)
Visibility:6 or more sm (10+ km)
Ceiling:1100 feet AGL
Clouds: overcast cloud deck at 1100 feet AGL
Text:EKRN 241620Z AUTO 24018KT 9999 OVC010/// 09/08 Q1019
Temperature: 9.0°C ( 48°F)
Dewpoint: 8.0°C ( 46°F) [RH = 93%]
Pressure (altimeter):30.09 inches Hg (1019.0 mb)
Winds:from the WSW (240 degrees) at 21 MPH (18 knots; 9.3 m/s)
Visibility:6 or more sm (10+ km)
Ceiling:1000 feet AGL
Clouds: overcast cloud deck at 1000 feet AGL
Text:EKRN 241550Z AUTO 25017KT 9999 OVC011/// 09/08 Q1019
Temperature: 9.0°C ( 48°F)
Dewpoint: 8.0°C ( 46°F) [RH = 93%]
Pressure (altimeter):30.09 inches Hg (1019.0 mb)
Winds:from the WSW (250 degrees) at 20 MPH (17 knots; 8.7 m/s)
Visibility:6 or more sm (10+ km)
Ceiling:1100 feet AGL
Clouds: overcast cloud deck at 1100 feet AGL
Text:EKRN 241520Z AUTO 25018KT 9999 OVC011/// 09/08 Q1019
Temperature: 9.0°C ( 48°F)
Dewpoint: 8.0°C ( 46°F) [RH = 93%]
Pressure (altimeter):30.09 inches Hg (1019.0 mb)
Winds:from the WSW (250 degrees) at 21 MPH (18 knots; 9.3 m/s)
Visibility:6 or more sm (10+ km)
Ceiling:1100 feet AGL
Clouds: overcast cloud deck at 1100 feet AGL
Text:EKRN 241450Z AUTO 25019KT 9999 OVC011/// 09/08 Q1019
Temperature: 9.0°C ( 48°F)
Dewpoint: 8.0°C ( 46°F) [RH = 93%]
Pressure (altimeter):30.09 inches Hg (1019.0 mb)
Winds:from the WSW (250 degrees) at 22 MPH (19 knots; 9.8 m/s)
Visibility:6 or more sm (10+ km)
Ceiling:1100 feet AGL
Clouds: overcast cloud deck at 1100 feet AGL
Text:EKRN 241420Z AUTO 24020KT 9999 OVC010/// 09/09 Q1019
Temperature: 9.0°C ( 48°F)
Dewpoint: 9.0°C ( 48°F) [RH = 100%]
Pressure (altimeter):30.09 inches Hg (1019.0 mb)
Winds:from the WSW (240 degrees) at 23 MPH (20 knots; 10.3 m/s)
Visibility:6 or more sm (10+ km)
Ceiling:1000 feet AGL
Clouds: overcast cloud deck at 1000 feet AGL
Text:EKRN 241350Z AUTO 25020KT 9999 OVC011/// 08/08 Q1018
Temperature: 8.0°C ( 46°F)
Dewpoint: 8.0°C ( 46°F) [RH = 100%]
Pressure (altimeter):30.06 inches Hg (1018.0 mb)
Winds:from the WSW (250 degrees) at 23 MPH (20 knots; 10.3 m/s)
Visibility:6 or more sm (10+ km)
Ceiling:1100 feet AGL
Clouds: overcast cloud deck at 1100 feet AGL
Text:EKRN 241320Z AUTO 24019KT 9999 OVC011/// 09/09 Q1019
Temperature: 9.0°C ( 48°F)
Dewpoint: 9.0°C ( 48°F) [RH = 100%]
Pressure (altimeter):30.09 inches Hg (1019.0 mb)
Winds:from the WSW (240 degrees) at 22 MPH (19 knots; 9.8 m/s)
Visibility:6 or more sm (10+ km)
Ceiling:1100 feet AGL
Clouds: overcast cloud deck at 1100 feet AGL
Text:EKRN 241250Z AUTO 25020KT 9999 FEW010/// OVC025/// 09/09 Q1019
Temperature: 9.0°C ( 48°F)
Dewpoint: 9.0°C ( 48°F) [RH = 100%]
Pressure (altimeter):30.09 inches Hg (1019.0 mb)
Winds:from the WSW (250 degrees) at 23 MPH (20 knots; 10.3 m/s)
Visibility:6 or more sm (10+ km)
Ceiling:2500 feet AGL
Clouds: few clouds at 1000 feet AGL, overcast cloud deck at 2500 feet AGL
Text:EKRN 241220Z AUTO 24020KT 9999 BKN010/// BKN028/// 08/08 Q1019
Temperature: 8.0°C ( 46°F)
Dewpoint: 8.0°C ( 46°F) [RH = 100%]
Pressure (altimeter):30.09 inches Hg (1019.0 mb)
Winds:from the WSW (240 degrees) at 23 MPH (20 knots; 10.3 m/s)
Visibility:6 or more sm (10+ km)
Ceiling:1000 feet AGL
Clouds: broken clouds at 1000 feet AGL, broken clouds at 2800 feet AGL
Text:EKRN 241150Z AUTO 25021KT 9999 BKN011/// BKN062/// 08/08 Q1019
Temperature: 8.0°C ( 46°F)
Dewpoint: 8.0°C ( 46°F) [RH = 100%]
Pressure (altimeter):30.09 inches Hg (1019.0 mb)
Winds:from the WSW (250 degrees) at 24 MPH (21 knots; 10.8 m/s)
Visibility:6 or more sm (10+ km)
Ceiling:1100 feet AGL
Clouds: broken clouds at 1100 feet AGL, broken clouds at 6200 feet AGL
Text:EKRN 241120Z AUTO 25021KT 9999 BKN011/// BKN063/// 08/08 Q1019
Temperature: 8.0°C ( 46°F)
Dewpoint: 8.0°C ( 46°F) [RH = 100%]
Pressure (altimeter):30.09 inches Hg (1019.0 mb)
Winds:from the WSW (250 degrees) at 24 MPH (21 knots; 10.8 m/s)
Visibility:6 or more sm (10+ km)
Ceiling:1100 feet AGL
Clouds: broken clouds at 1100 feet AGL, broken clouds at 6300 feet AGL
Text:EKRN 241050Z AUTO 24020KT 9999 SCT011/// BKN033/// BKN064/// 08/08 Q1019
Temperature: 8.0°C ( 46°F)
Dewpoint: 8.0°C ( 46°F) [RH = 100%]
Pressure (altimeter):30.09 inches Hg (1019.0 mb)
Winds:from the WSW (240 degrees) at 23 MPH (20 knots; 10.3 m/s)
Visibility:6 or more sm (10+ km)
Ceiling:3300 feet AGL
Clouds: scattered clouds at 1100 feet AGL, broken clouds at 3300 feet AGL, broken clouds at 6400 feet AGL
Text:EKRN 241020Z AUTO 24020KT 9999 FEW012/// BKN064/// 08/08 Q1019
Temperature: 8.0°C ( 46°F)
Dewpoint: 8.0°C ( 46°F) [RH = 100%]
Pressure (altimeter):30.09 inches Hg (1019.0 mb)
Winds:from the WSW (240 degrees) at 23 MPH (20 knots; 10.3 m/s)
Visibility:6 or more sm (10+ km)
Ceiling:6400 feet AGL
Clouds: few clouds at 1200 feet AGL, broken clouds at 6400 feet AGL
Text:EKRN 240950Z AUTO 25021KT 9999 SCT013/// BKN039/// 08/07 Q1020
Temperature: 8.0°C ( 46°F)
Dewpoint: 7.0°C ( 45°F) [RH = 93%]
Pressure (altimeter):30.12 inches Hg (1020.0 mb)
Winds:from the WSW (250 degrees) at 24 MPH (21 knots; 10.8 m/s)
Visibility:6 or more sm (10+ km)
Ceiling:3900 feet AGL
Clouds: scattered clouds at 1300 feet AGL, broken clouds at 3900 feet AGL
Text:EKRN 240920Z AUTO 24020KT 9999 SCT014/// OVC043/// 08/08 Q1020
Temperature: 8.0°C ( 46°F)
Dewpoint: 8.0°C ( 46°F) [RH = 100%]
Pressure (altimeter):30.12 inches Hg (1020.0 mb)
Winds:from the WSW (240 degrees) at 23 MPH (20 knots; 10.3 m/s)
Visibility:6 or more sm (10+ km)
Ceiling:4300 feet AGL
Clouds: scattered clouds at 1400 feet AGL, overcast cloud deck at 4300 feet AGL
Text:EKRN 240850Z AUTO 24021KT 9999 DZ SCT015/// OVC047/// 08/08 Q1020
Temperature: 8.0°C ( 46°F)
Dewpoint: 8.0°C ( 46°F) [RH = 100%]
Pressure (altimeter):30.12 inches Hg (1020.0 mb)
Winds:from the WSW (240 degrees) at 24 MPH (21 knots; 10.8 m/s)
Visibility:6 or more sm (10+ km)
Ceiling:4700 feet AGL
Clouds: scattered clouds at 1500 feet AGL, overcast cloud deck at 4700 feet AGL
Weather:DZ (moderate drizzle)
Text:EKRN 240820Z AUTO 24019KT 9999 FEW044/// OVC059/// 08/06 Q1020
Temperature: 8.0°C ( 46°F)
Dewpoint: 6.0°C ( 43°F) [RH = 87%]
Pressure (altimeter):30.12 inches Hg (1020.0 mb)
Winds:from the WSW (240 degrees) at 22 MPH (19 knots; 9.8 m/s)
Visibility:6 or more sm (10+ km)
Ceiling:5900 feet AGL
Clouds: few clouds at 4400 feet AGL, overcast cloud deck at 5900 feet AGL
Text:EKRN 240750Z AUTO 24020KT 9999 FEW014/// OVC042/// 08/06 Q1020
Temperature: 8.0°C ( 46°F)
Dewpoint: 6.0°C ( 43°F) [RH = 87%]
Pressure (altimeter):30.12 inches Hg (1020.0 mb)
Winds:from the WSW (240 degrees) at 23 MPH (20 knots; 10.3 m/s)
Visibility:6 or more sm (10+ km)
Ceiling:4200 feet AGL
Clouds: few clouds at 1400 feet AGL, overcast cloud deck at 4200 feet AGL
Text:EKRN 240720Z AUTO 24020KT 9999 FEW014/// BKN042/// BKN100/// 08/08 Q1020
Temperature: 8.0°C ( 46°F)
Dewpoint: 8.0°C ( 46°F) [RH = 100%]
Pressure (altimeter):30.12 inches Hg (1020.0 mb)
Winds:from the WSW (240 degrees) at 23 MPH (20 knots; 10.3 m/s)
Visibility:6 or more sm (10+ km)
Ceiling:4200 feet AGL
Clouds: few clouds at 1400 feet AGL, broken clouds at 4200 feet AGL, broken clouds at 10000 feet AGL
Text:EKRN 240650Z AUTO 24019KT 9999 FEW012/// OVC100/// 08/08 Q1020
Temperature: 8.0°C ( 46°F)
Dewpoint: 8.0°C ( 46°F) [RH = 100%]
Pressure (altimeter):30.12 inches Hg (1020.0 mb)
Winds:from the WSW (240 degrees) at 22 MPH (19 knots; 9.8 m/s)
Visibility:6 or more sm (10+ km)
Ceiling:10000 feet AGL
Clouds: few clouds at 1200 feet AGL, overcast cloud deck at 10000 feet AGL
Text:EKRN 240620Z AUTO 24020KT 9999 FEW014/// SCT042/// BKN110/// 08/08 Q1020
Temperature: 8.0°C ( 46°F)
Dewpoint: 8.0°C ( 46°F) [RH = 100%]
Pressure (altimeter):30.12 inches Hg (1020.0 mb)
Winds:from the WSW (240 degrees) at 23 MPH (20 knots; 10.3 m/s)
Visibility:6 or more sm (10+ km)
Ceiling:11000 feet AGL
Clouds: few clouds at 1400 feet AGL, scattered clouds at 4200 feet AGL, broken clouds at 11000 feet AGL
Text:EKRN 240550Z AUTO 24019KT 9999 FEW015/// SCT035/// SCT043/// BKN120/// 08/06 Q1020
Temperature: 8.0°C ( 46°F)
Dewpoint: 6.0°C ( 43°F) [RH = 87%]
Pressure (altimeter):30.12 inches Hg (1020.0 mb)
Winds:from the WSW (240 degrees) at 22 MPH (19 knots; 9.8 m/s)
Visibility:6 or more sm (10+ km)
Ceiling:12000 feet AGL
Clouds: few clouds at 1500 feet AGL, scattered clouds at 3500 feet AGL, scattered clouds at 4300 feet AGL, broken clouds at 12000 feet AGL
Text:EKRN 240520Z AUTO 24018KT 9999 BKN015/// 08/07 Q1020
Temperature: 8.0°C ( 46°F)
Dewpoint: 7.0°C ( 45°F) [RH = 93%]
Pressure (altimeter):30.12 inches Hg (1020.0 mb)
Winds:from the WSW (240 degrees) at 21 MPH (18 knots; 9.3 m/s)
Visibility:6 or more sm (10+ km)
Ceiling:1500 feet AGL
Clouds: broken clouds at 1500 feet AGL
Text:EKRN 240450Z AUTO 24019KT 9999 BKN013/// 08/08 Q1021
Temperature: 8.0°C ( 46°F)
Dewpoint: 8.0°C ( 46°F) [RH = 100%]
Pressure (altimeter):30.15 inches Hg (1021.0 mb)
Winds:from the WSW (240 degrees) at 22 MPH (19 knots; 9.8 m/s)
Visibility:6 or more sm (10+ km)
Ceiling:1300 feet AGL
Clouds: broken clouds at 1300 feet AGL
Text:EKRN 240420Z AUTO 24017KT 9999 SCT011/// BKN039/// 08/08 Q1021
Temperature: 8.0°C ( 46°F)
Dewpoint: 8.0°C ( 46°F) [RH = 100%]
Pressure (altimeter):30.15 inches Hg (1021.0 mb)
Winds:from the WSW (240 degrees) at 20 MPH (17 knots; 8.7 m/s)
Visibility:6 or more sm (10+ km)
Ceiling:3900 feet AGL
Clouds: scattered clouds at 1100 feet AGL, broken clouds at 3900 feet AGL
Text:EKRN 240350Z AUTO 24019KT 9999 FEW011/// BKN036/// 08/08 Q1021
Temperature: 8.0°C ( 46°F)
Dewpoint: 8.0°C ( 46°F) [RH = 100%]
Pressure (altimeter):30.15 inches Hg (1021.0 mb)
Winds:from the WSW (240 degrees) at 22 MPH (19 knots; 9.8 m/s)
Visibility:6 or more sm (10+ km)
Ceiling:3600 feet AGL
Clouds: few clouds at 1100 feet AGL, broken clouds at 3600 feet AGL
Text:EKRN 240320Z AUTO 24018KT 9999 FEW011/// OVC032/// 08/08 Q1021
Temperature: 8.0°C ( 46°F)
Dewpoint: 8.0°C ( 46°F) [RH = 100%]
Pressure (altimeter):30.15 inches Hg (1021.0 mb)
Winds:from the WSW (240 degrees) at 21 MPH (18 knots; 9.3 m/s)
Visibility:6 or more sm (10+ km)
Ceiling:3200 feet AGL
Clouds: few clouds at 1100 feet AGL, overcast cloud deck at 3200 feet AGL
Text:EKRN 240250Z AUTO 25018KT 9999 FEW011/// BKN041/// 09/09 Q1021
Temperature: 9.0°C ( 48°F)
Dewpoint: 9.0°C ( 48°F) [RH = 100%]
Pressure (altimeter):30.15 inches Hg (1021.0 mb)
Winds:from the WSW (250 degrees) at 21 MPH (18 knots; 9.3 m/s)
Visibility:6 or more sm (10+ km)
Ceiling:4100 feet AGL
Clouds: few clouds at 1100 feet AGL, broken clouds at 4100 feet AGL
Text:EKRN 240220Z AUTO 24019KT 9999 BKN011/// OVC038/// 09/08 Q1022
Temperature: 9.0°C ( 48°F)
Dewpoint: 8.0°C ( 46°F) [RH = 93%]
Pressure (altimeter):30.18 inches Hg (1022.0 mb)
Winds:from the WSW (240 degrees) at 22 MPH (19 knots; 9.8 m/s)
Visibility:6 or more sm (10+ km)
Ceiling:1100 feet AGL
Clouds: broken clouds at 1100 feet AGL, overcast cloud deck at 3800 feet AGL

TAF for:EKRN (Ronne/Bornholm Arpt, HO, DN) issued at 1100 UTC 25 Nov 2020
Text:TAF EKRN 251100Z 2512/2521 22010KT 9000 SCT012
Forecast period:1200 to 2100 UTC 25 November 2020
Forecast type:FROM: standard forecast or significant change
Winds:from the SW (220 degrees) at 12 MPH (10 knots; 5.1 m/s)
Visibility: 6 sm ( 9 km)
Ceiling:at least 12,000 feet AGL
Clouds: scattered clouds at 1200 feet AGL
Text:TEMPO 2512/2521 4000 BR BKN008
Forecast period:1200 to 2100 UTC 25 November 2020
Forecast type:TEMPORARY: The following changes expected for less than half the time period
Visibility: 2.49 sm ( 4.01 km)
Ceiling:800 feet AGL
Clouds: broken clouds at 800 feet AGL
Weather:BR (mist)